Pyatt, Arkansas
Current Conditions -  °F | °C
As of 8:35 AM on Thursday 29 Jan 2015 (Local Time) from KFLP Reporting Station
Clear Clear  
Wind Chill: 52°   Ceiling: Unl
Heat Index: 52°   Visibility: 10mi
Dew Point: 36°   Wind: 13mph
Humidity: 54%   Direction: 320°NW
Pressure: 30.13"   Gusts: 21mph
Location:  36.25°N, 92.84°W
Report Text: KFLP 291435Z 32011G18KT 10SM CLR 11/02 A3013 RMK AO1
Loading
Personal Weather Stations






























Interactive Weather Map New forecast layout! Learn more

10-Day Weather Forecast

Advertisements
Track Severe Weather on mobile